Richland Springs, Texas
Current Conditions -  °F | °C
As of 9:35 PM on Friday 19 Dec 2014 (Local Time) from KBBD Reporting Station
Overcast Overcast  
Wind Chill: 46°   Ceiling: 1200
Heat Index: 46°   Visibility: 10mi
Dew Point: 43°   Wind: 3mph
Humidity: 87%   Direction: 30°NNE
Pressure: 30.18"   Gusts: NA
Location:  31.27°N, 98.95°W
Report Text: KBBD 200335Z AUTO 03003KT 10SM BKN012 OVC016 08/06 A3018 RMK
Loading
Personal Weather Stations






























Interactive Weather Map New forecast layout! Learn more

10-Day Weather Forecast

Advertisements
Track Severe Weather on mobile